sensor_id;sensor_type;location;lat;lon;timestamp;pressure;altitude;pressure_sealevel;temperature;humidity
81387;BME280;70842;50.744;7.114;2024-01-15T00:01:07;99902.66;;;4.41;63.04
81387;BME280;70842;50.744;7.114;2024-01-15T00:03:34;99901.72;;;4.30;63.03
81387;BME280;70842;50.744;7.114;2024-01-15T00:06:00;99894.78;;;4.41;62.89
81387;BME280;70842;50.744;7.114;2024-01-15T00:08:27;99889.09;;;4.22;63.60
81387;BME280;70842;50.744;7.114;2024-01-15T00:10:53;99883.47;;;4.41;62.95
81387;BME280;70842;50.744;7.114;2024-01-15T00:13:19;99876.84;;;4.48;62.78
81387;BME280;70842;50.744;7.114;2024-01-15T00:15:46;99878.22;;;4.41;63.06
81387;BME280;70842;50.744;7.114;2024-01-15T00:18:12;99880.09;;;4.64;62.54
81387;BME280;70842;50.744;7.114;2024-01-15T00:20:39;99877.56;;;4.50;63.28
81387;BME280;70842;50.744;7.114;2024-01-15T00:23:05;99871.47;;;4.24;63.75
81387;BME280;70842;50.744;7.114;2024-01-15T00:25:32;99858.66;;;3.94;65.20
81387;BME280;70842;50.744;7.114;2024-01-15T00:27:58;99866.97;;;4.14;64.47
81387;BME280;70842;50.744;7.114;2024-01-15T00:30:24;99850.72;;;3.30;67.53
81387;BME280;70842;50.744;7.114;2024-01-15T00:32:51;99857.47;;;3.86;67.12
81387;BME280;70842;50.744;7.114;2024-01-15T00:35:18;99849.22;;;3.92;67.94
81387;BME280;70842;50.744;7.114;2024-01-15T00:37:44;99840.97;;;3.59;68.35
81387;BME280;70842;50.744;7.114;2024-01-15T00:40:10;99854.22;;;3.43;69.91
81387;BME280;70842;50.744;7.114;2024-01-15T00:42:37;99856.44;;;3.23;71.11
81387;BME280;70842;50.744;7.114;2024-01-15T00:45:04;99839.44;;;3.69;68.98
81387;BME280;70842;50.744;7.114;2024-01-15T00:47:31;99860.22;;;3.04;71.46
81387;BME280;70842;50.744;7.114;2024-01-15T00:49:58;99845.50;;;3.16;70.98
81387;BME280;70842;50.744;7.114;2024-01-15T00:52:24;99863.81;;;3.16;71.52
81387;BME280;70842;50.744;7.114;2024-01-15T00:54:50;99845.28;;;3.33;71.26
81387;BME280;70842;50.744;7.114;2024-01-15T00:57:17;99851.31;;;3.21;72.16
81387;BME280;70842;50.744;7.114;2024-01-15T00:59:45;99842.41;;;3.50;72.41
81387;BME280;70842;50.744;7.114;2024-01-15T01:02:11;99847.25;;;2.89;73.64
81387;BME280;70842;50.744;7.114;2024-01-15T01:04:38;99851.81;;;3.40;73.01
81387;BME280;70842;50.744;7.114;2024-01-15T01:07:04;99851.22;;;3.49;71.85
81387;BME280;70842;50.744;7.114;2024-01-15T01:09:31;99849.13;;;2.87;73.99
81387;BME280;70842;50.744;7.114;2024-01-15T01:11:57;99836.56;;;3.20;72.54
81387;BME280;70842;50.744;7.114;2024-01-15T01:14:24;99832.16;;;3.47;71.41
81387;BME280;70842;50.744;7.114;2024-01-15T01:16:50;99842.66;;;3.60;71.06
81387;BME280;70842;50.744;7.114;2024-01-15T01:19:16;99846.34;;;3.31;71.61
81387;BME280;70842;50.744;7.114;2024-01-15T01:21:43;99843.56;;;3.20;71.19
81387;BME280;70842;50.744;7.114;2024-01-15T01:24:10;99842.09;;;3.55;70.95
81387;BME280;70842;50.744;7.114;2024-01-15T01:26:36;99845.06;;;3.63;70.09
81387;BME280;70842;50.744;7.114;2024-01-15T01:29:03;99846.03;;;3.74;69.78
81387;BME280;70842;50.744;7.114;2024-01-15T01:31:29;99846.56;;;3.40;70.77
81387;BME280;70842;50.744;7.114;2024-01-15T01:33:55;99856.81;;;2.90;73.48
81387;BME280;70842;50.744;7.114;2024-01-15T01:36:22;99851.22;;;2.82;74.50
81387;BME280;70842;50.744;7.114;2024-01-15T01:38:49;99850.47;;;2.80;74.68
81387;BME280;70842;50.744;7.114;2024-01-15T01:41:15;99844.25;;;3.09;74.53
81387;BME280;70842;50.744;7.114;2024-01-15T01:43:42;99847.31;;;3.15;73.98
81387;BME280;70842;50.744;7.114;2024-01-15T01:46:09;99852.53;;;3.15;74.58
81387;BME280;70842;50.744;7.114;2024-01-15T01:48:35;99844.56;;;2.76;75.14
81387;BME280;70842;50.744;7.114;2024-01-15T01:51:03;99849.16;;;2.45;76.71
81387;BME280;70842;50.744;7.114;2024-01-15T01:53:32;99844.25;;;2.95;75.51
81387;BME280;70842;50.744;7.114;2024-01-15T01:55:59;99841.56;;;3.23;73.79
81387;BME280;70842;50.744;7.114;2024-01-15T01:58:27;99835.72;;;3.20;74.65
81387;BME280;70842;50.744;7.114;2024-01-15T02:00:53;99838.47;;;3.31;72.85
81387;BME280;70842;50.744;7.114;2024-01-15T02:03:21;99837.72;;;3.02;73.27
81387;BME280;70842;50.744;7.114;2024-01-15T02:05:48;99842.53;;;3.22;73.48
81387;BME280;70842;50.744;7.114;2024-01-15T02:08:15;99826.94;;;3.06;72.45
81387;BME280;70842;50.744;7.114;2024-01-15T02:10:42;99838.25;;;3.34;72.30
81387;BME280;70842;50.744;7.114;2024-01-15T02:13:08;99837.91;;;3.52;71.11
81387;BME280;70842;50.744;7.114;2024-01-15T02:15:35;99839.28;;;3.31;71.91
81387;BME280;70842;50.744;7.114;2024-01-15T02:18:05;99835.41;;;3.24;71.87
81387;BME280;70842;50.744;7.114;2024-01-15T02:20:34;99841.50;;;2.84;72.40
81387;BME280;70842;50.744;7.114;2024-01-15T02:23:10;99850.16;;;3.25;71.46
81387;BME280;70842;50.744;7.114;2024-01-15T02:25:41;99840.84;;;3.21;72.08
81387;BME280;70842;50.744;7.114;2024-01-15T02:28:08;99849.75;;;3.45;71.30
81387;BME280;70842;50.744;7.114;2024-01-15T02:30:39;99828.56;;;3.48;71.25
81387;BME280;70842;50.744;7.114;2024-01-15T02:33:09;99841.53;;;3.37;71.34
81387;BME280;70842;50.744;7.114;2024-01-15T02:35:37;99837.28;;;3.22;72.26
81387;BME280;70842;50.744;7.114;2024-01-15T02:38:04;99837.53;;;3.05;72.57
81387;BME280;70842;50.744;7.114;2024-01-15T02:40:31;99842.13;;;3.28;71.83
81387;BME280;70842;50.744;7.114;2024-01-15T02:42:58;99838.94;;;3.23;72.11
81387;BME280;70842;50.744;7.114;2024-01-15T02:45:25;99843.31;;;2.96;73.58
81387;BME280;70842;50.744;7.114;2024-01-15T02:47:51;99836.97;;;3.00;72.04
81387;BME280;70842;50.744;7.114;2024-01-15T02:50:18;99850.59;;;3.05;72.27
81387;BME280;70842;50.744;7.114;2024-01-15T02:52:44;99845.19;;;2.94;73.15
81387;BME280;70842;50.744;7.114;2024-01-15T02:55:11;99839.50;;;3.28;72.41
81387;BME280;70842;50.744;7.114;2024-01-15T02:57:37;99839.03;;;3.48;71.27
81387;BME280;70842;50.744;7.114;2024-01-15T03:00:04;99835.94;;;3.02;71.93
81387;BME280;70842;50.744;7.114;2024-01-15T03:02:31;99837.59;;;3.57;71.35
81387;BME280;70842;50.744;7.114;2024-01-15T03:04:58;99844.78;;;3.14;71.64
81387;BME280;70842;50.744;7.114;2024-01-15T03:07:24;99824.72;;;2.86;72.60
81387;BME280;70842;50.744;7.114;2024-01-15T03:09:50;99837.06;;;3.25;71.90
81387;BME280;70842;50.744;7.114;2024-01-15T03:12:17;99844.88;;;3.12;72.31
81387;BME280;70842;50.744;7.114;2024-01-15T03:14:44;99837.97;;;3.38;71.52
81387;BME280;70842;50.744;7.114;2024-01-15T03:17:11;99840.28;;;3.43;70.78
81387;BME280;70842;50.744;7.114;2024-01-15T03:19:38;99855.84;;;3.05;72.41
81387;BME280;70842;50.744;7.114;2024-01-15T03:22:05;99824.88;;;2.71;73.03
81387;BME280;70842;50.744;7.114;2024-01-15T03:24:34;99841.91;;;3.31;71.87
81387;BME280;70842;50.744;7.114;2024-01-15T03:27:01;99840.09;;;3.19;72.28
81387;BME280;70842;50.744;7.114;2024-01-15T03:29:28;99836.78;;;3.03;71.80
81387;BME280;70842;50.744;7.114;2024-01-15T03:31:54;99845.16;;;3.08;72.20
81387;BME280;70842;50.744;7.114;2024-01-15T03:34:21;99832.88;;;3.23;71.76
81387;BME280;70842;50.744;7.114;2024-01-15T03:36:48;99830.59;;;3.04;72.00
81387;BME280;70842;50.744;7.114;2024-01-15T03:39:14;99837.28;;;3.22;71.77
81387;BME280;70842;50.744;7.114;2024-01-15T03:41:40;99840.25;;;3.30;71.58
81387;BME280;70842;50.744;7.114;2024-01-15T03:44:07;99831.47;;;3.44;71.15
81387;BME280;70842;50.744;7.114;2024-01-15T03:46:33;99837.75;;;3.29;71.47
81387;BME280;70842;50.744;7.114;2024-01-15T03:49:00;99831.81;;;3.78;69.86
81387;BME280;70842;50.744;7.114;2024-01-15T03:51:26;99834.84;;;3.46;70.60
81387;BME280;70842;50.744;7.114;2024-01-15T03:53:53;99842.19;;;3.41;71.51
81387;BME280;70842;50.744;7.114;2024-01-15T03:56:19;99834.44;;;3.39;71.42
81387;BME280;70842;50.744;7.114;2024-01-15T03:58:45;99835.69;;;3.46;70.58
81387;BME280;70842;50.744;7.114;2024-01-15T04:01:12;99827.31;;;3.41;71.05
81387;BME280;70842;50.744;7.114;2024-01-15T04:03:38;99829.81;;;3.43;70.61
81387;BME280;70842;50.744;7.114;2024-01-15T04:06:05;99830.94;;;3.65;69.73
81387;BME280;70842;50.744;7.114;2024-01-15T04:08:32;99832.41;;;3.30;71.46
81387;BME280;70842;50.744;7.114;2024-01-15T04:10:58;99826.53;;;3.66;71.08
81387;BME280;70842;50.744;7.114;2024-01-15T04:13:26;99819.31;;;3.30;71.41
81387;BME280;70842;50.744;7.114;2024-01-15T04:15:52;99825.69;;;3.65;71.08
81387;BME280;70842;50.744;7.114;2024-01-15T04:18:19;99818.25;;;3.06;72.21
81387;BME280;70842;50.744;7.114;2024-01-15T04:20:45;99817.97;;;3.76;70.49
81387;BME280;70842;50.744;7.114;2024-01-15T04:23:11;99823.84;;;3.41;71.48
81387;BME280;70842;50.744;7.114;2024-01-15T04:25:38;99819.75;;;3.88;70.21
81387;BME280;70842;50.744;7.114;2024-01-15T04:28:07;99817.31;;;3.34;70.76
81387;BME280;70842;50.744;7.114;2024-01-15T04:30:33;99805.34;;;3.56;70.52
81387;BME280;70842;50.744;7.114;2024-01-15T04:33:00;99814.94;;;3.82;69.38
81387;BME280;70842;50.744;7.114;2024-01-15T04:35:26;99809.06;;;3.40;70.28
81387;BME280;70842;50.744;7.114;2024-01-15T04:37:53;99801.34;;;4.03;69.28
81387;BME280;70842;50.744;7.114;2024-01-15T04:40:19;99795.13;;;3.91;69.37
81387;BME280;70842;50.744;7.114;2024-01-15T04:42:45;99793.41;;;3.65;70.39
81387;BME280;70842;50.744;7.114;2024-01-15T04:45:12;99800.47;;;3.89;70.05
81387;BME280;70842;50.744;7.114;2024-01-15T04:47:39;99797.25;;;3.47;71.33
81387;BME280;70842;50.744;7.114;2024-01-15T04:50:06;99797.84;;;3.77;70.57
81387;BME280;70842;50.744;7.114;2024-01-15T04:52:32;99802.47;;;3.07;71.93
81387;BME280;70842;50.744;7.114;2024-01-15T04:54:59;99805.75;;;3.63;71.48
81387;BME280;70842;50.744;7.114;2024-01-15T04:57:25;99796.19;;;3.10;73.11
81387;BME280;70842;50.744;7.114;2024-01-15T04:59:51;99796.06;;;3.38;72.32
81387;BME280;70842;50.744;7.114;2024-01-15T05:02:18;99807.75;;;3.20;72.54
81387;BME280;70842;50.744;7.114;2024-01-15T05:04:44;99785.97;;;3.59;71.53
81387;BME280;70842;50.744;7.114;2024-01-15T05:07:11;99791.91;;;3.48;71.67
81387;BME280;70842;50.744;7.114;2024-01-15T05:09:37;99798.19;;;3.46;71.44
81387;BME280;70842;50.744;7.114;2024-01-15T05:12:04;99799.41;;;3.28;71.75
81387;BME280;70842;50.744;7.114;2024-01-15T05:14:30;99777.19;;;3.33;70.31
81387;BME280;70842;50.744;7.114;2024-01-15T05:16:57;99778.56;;;3.90;69.19
81387;BME280;70842;50.744;7.114;2024-01-15T05:19:23;99788.00;;;3.80;69.31
81387;BME280;70842;50.744;7.114;2024-01-15T05:21:49;99777.94;;;4.12;68.28
81387;BME280;70842;50.744;7.114;2024-01-15T05:24:16;99777.41;;;3.94;68.63
81387;BME280;70842;50.744;7.114;2024-01-15T05:26:42;99777.31;;;3.83;69.24
81387;BME280;70842;50.744;7.114;2024-01-15T05:29:09;99777.09;;;4.12;68.65
81387;BME280;70842;50.744;7.114;2024-01-15T05:31:35;99785.38;;;4.06;68.84
81387;BME280;70842;50.744;7.114;2024-01-15T05:34:02;99771.41;;;3.67;70.08
81387;BME280;70842;50.744;7.114;2024-01-15T05:36:29;99777.22;;;3.97;69.29
81387;BME280;70842;50.744;7.114;2024-01-15T05:38:55;99774.59;;;4.10;68.79
81387;BME280;70842;50.744;7.114;2024-01-15T05:41:21;99775.56;;;3.45;70.92
81387;BME280;70842;50.744;7.114;2024-01-15T05:43:48;99782.19;;;3.63;70.86
81387;BME280;70842;50.744;7.114;2024-01-15T05:46:14;99789.72;;;3.15;72.20
81387;BME280;70842;50.744;7.114;2024-01-15T05:48:41;99774.47;;;3.74;70.89
81387;BME280;70842;50.744;7.114;2024-01-15T05:51:08;99786.47;;;3.51;71.02
81387;BME280;70842;50.744;7.114;2024-01-15T05:53:35;99784.69;;;3.12;72.88
81387;BME280;70842;50.744;7.114;2024-01-15T05:56:02;99772.38;;;3.66;71.02
81387;BME280;70842;50.744;7.114;2024-01-15T05:58:28;99766.88;;;3.44;71.66
81387;BME280;70842;50.744;7.114;2024-01-15T06:00:54;99778.69;;;3.89;70.73
81387;BME280;70842;50.744;7.114;2024-01-15T06:03:21;99773.84;;;3.70;71.30
81387;BME280;70842;50.744;7.114;2024-01-15T06:05:47;99778.34;;;3.68;71.03
81387;BME280;70842;50.744;7.114;2024-01-15T06:08:14;99773.84;;;3.70;73.11
81387;BME280;70842;50.744;7.114;2024-01-15T06:10:40;99771.03;;;4.11;70.87
81387;BME280;70842;50.744;7.114;2024-01-15T06:13:07;99764.06;;;4.48;70.22
81387;BME280;70842;50.744;7.114;2024-01-15T06:15:33;99758.97;;;4.21;68.87
81387;BME280;70842;50.744;7.114;2024-01-15T06:18:00;99769.34;;;3.85;70.58
81387;BME280;70842;50.744;7.114;2024-01-15T06:20:26;99769.19;;;4.62;68.08
81387;BME280;70842;50.744;7.114;2024-01-15T06:22:53;99769.94;;;4.51;68.37
81387;BME280;70842;50.744;7.114;2024-01-15T06:25:19;99762.44;;;4.22;69.10
81387;BME280;70842;50.744;7.114;2024-01-15T06:27:45;99758.97;;;3.83;70.74
81387;BME280;70842;50.744;7.114;2024-01-15T06:30:12;99760.13;;;3.67;71.71
81387;BME280;70842;50.744;7.114;2024-01-15T06:32:39;99766.19;;;3.80;71.47
81387;BME280;70842;50.744;7.114;2024-01-15T06:35:06;99753.66;;;3.46;73.55
81387;BME280;70842;50.744;7.114;2024-01-15T06:37:33;99758.53;;;3.64;72.64
81387;BME280;70842;50.744;7.114;2024-01-15T06:39:59;99760.13;;;3.79;71.92
81387;BME280;70842;50.744;7.114;2024-01-15T06:42:26;99759.44;;;3.51;72.77
81387;BME280;70842;50.744;7.114;2024-01-15T06:44:52;99747.09;;;3.65;72.11
81387;BME280;70842;50.744;7.114;2024-01-15T06:47:19;99758.25;;;3.81;71.22
81387;BME280;70842;50.744;7.114;2024-01-15T06:49:45;99753.63;;;3.97;70.51
81387;BME280;70842;50.744;7.114;2024-01-15T06:52:11;99752.59;;;3.87;70.99
81387;BME280;70842;50.744;7.114;2024-01-15T06:54:38;99748.19;;;3.88;71.01
81387;BME280;70842;50.744;7.114;2024-01-15T06:57:05;99754.44;;;3.60;72.12
81387;BME280;70842;50.744;7.114;2024-01-15T06:59:34;99752.34;;;3.78;71.59
81387;BME280;70842;50.744;7.114;2024-01-15T07:02:01;99756.09;;;3.49;73.18
81387;BME280;70842;50.744;7.114;2024-01-15T07:04:28;99739.03;;;3.43;73.31
81387;BME280;70842;50.744;7.114;2024-01-15T07:06:54;99759.13;;;3.43;73.28
81387;BME280;70842;50.744;7.114;2024-01-15T07:09:21;99747.34;;;3.75;72.54
81387;BME280;70842;50.744;7.114;2024-01-15T07:11:47;99748.34;;;3.47;73.57
81387;BME280;70842;50.744;7.114;2024-01-15T07:14:14;99747.31;;;3.50;73.48
81387;BME280;70842;50.744;7.114;2024-01-15T07:16:40;99744.56;;;3.39;72.88
81387;BME280;70842;50.744;7.114;2024-01-15T07:19:08;99743.56;;;3.66;72.67
81387;BME280;70842;50.744;7.114;2024-01-15T07:21:35;99743.69;;;3.77;72.04
81387;BME280;70842;50.744;7.114;2024-01-15T07:24:01;99744.00;;;3.85;72.54
81387;BME280;70842;50.744;7.114;2024-01-15T07:26:30;99749.31;;;3.71;72.34
81387;BME280;70842;50.744;7.114;2024-01-15T07:28:56;99752.66;;;3.86;71.67
81387;BME280;70842;50.744;7.114;2024-01-15T07:31:23;99744.28;;;3.93;71.29
81387;BME280;70842;50.744;7.114;2024-01-15T07:33:49;99746.06;;;3.68;72.12
81387;BME280;70842;50.744;7.114;2024-01-15T07:36:15;99744.59;;;3.76;72.05
81387;BME280;70842;50.744;7.114;2024-01-15T07:38:42;99742.81;;;3.64;72.19
81387;BME280;70842;50.744;7.114;2024-01-15T07:41:09;99738.84;;;3.97;71.40
81387;BME280;70842;50.744;7.114;2024-01-15T07:43:35;99743.69;;;4.03;70.48
81387;BME280;70842;50.744;7.114;2024-01-15T07:46:02;99740.09;;;4.16;70.20
81387;BME280;70842;50.744;7.114;2024-01-15T07:48:29;99744.06;;;4.34;69.66
81387;BME280;70842;50.744;7.114;2024-01-15T07:50:55;99741.69;;;3.93;70.39
81387;BME280;70842;50.744;7.114;2024-01-15T07:53:25;99730.56;;;4.15;69.54
81387;BME280;70842;50.744;7.114;2024-01-15T07:55:51;99737.47;;;3.91;69.99
81387;BME280;70842;50.744;7.114;2024-01-15T07:58:17;99737.47;;;3.53;71.60
81387;BME280;70842;50.744;7.114;2024-01-15T08:00:44;99733.91;;;4.17;70.01
81387;BME280;70842;50.744;7.114;2024-01-15T08:03:11;99737.47;;;4.04;68.83
81387;BME280;70842;50.744;7.114;2024-01-15T08:05:38;99735.06;;;4.26;68.87
81387;BME280;70842;50.744;7.114;2024-01-15T08:08:05;99733.66;;;4.33;68.28
81387;BME280;70842;50.744;7.114;2024-01-15T08:10:31;99732.88;;;4.07;69.04
81387;BME280;70842;50.744;7.114;2024-01-15T08:12:58;99747.53;;;3.84;68.47
81387;BME280;70842;50.744;7.114;2024-01-15T08:15:24;99737.38;;;4.18;67.63
81387;BME280;70842;50.744;7.114;2024-01-15T08:17:56;99740.63;;;3.96;67.85
81387;BME280;70842;50.744;7.114;2024-01-15T08:20:23;99744.19;;;3.95;67.50
81387;BME280;70842;50.744;7.114;2024-01-15T08:22:49;99740.63;;;4.09;67.35
81387;BME280;70842;50.744;7.114;2024-01-15T08:25:16;99746.19;;;3.66;67.90
81387;BME280;70842;50.744;7.114;2024-01-15T08:27:42;99741.38;;;3.85;67.48
81387;BME280;70842;50.744;7.114;2024-01-15T08:30:10;99739.16;;;3.79;67.59
81387;BME280;70842;50.744;7.114;2024-01-15T08:32:36;99730.66;;;3.88;66.87
81387;BME280;70842;50.744;7.114;2024-01-15T08:35:07;99739.38;;;3.89;66.44
81387;BME280;70842;50.744;7.114;2024-01-15T08:37:34;99738.59;;;4.25;65.29
81387;BME280;70842;50.744;7.114;2024-01-15T08:40:00;99743.94;;;4.36;65.35
81387;BME280;70842;50.744;7.114;2024-01-15T08:42:27;99729.72;;;3.89;66.33
81387;BME280;70842;50.744;7.114;2024-01-15T08:44:53;99731.91;;;4.08;65.32
81387;BME280;70842;50.744;7.114;2024-01-15T08:47:19;99733.59;;;4.09;65.71
81387;BME280;70842;50.744;7.114;2024-01-15T08:49:46;99731.75;;;4.35;64.59
81387;BME280;70842;50.744;7.114;2024-01-15T08:52:13;99736.00;;;4.00;65.27
81387;BME280;70842;50.744;7.114;2024-01-15T08:54:40;99737.78;;;4.12;65.11
81387;BME280;70842;50.744;7.114;2024-01-15T08:57:06;99726.13;;;4.28;65.10
81387;BME280;70842;50.744;7.114;2024-01-15T08:59:33;99736.72;;;4.27;64.46
81387;BME280;70842;50.744;7.114;2024-01-15T09:01:59;99747.53;;;4.10;65.72
81387;BME280;70842;50.744;7.114;2024-01-15T09:04:26;99737.34;;;4.05;65.50
81387;BME280;70842;50.744;7.114;2024-01-15T09:06:52;99747.66;;;3.95;65.63
81387;BME280;70842;50.744;7.114;2024-01-15T09:09:19;99745.59;;;4.49;63.93
81387;BME280;70842;50.744;7.114;2024-01-15T09:11:45;99741.41;;;4.47;63.56
81387;BME280;70842;50.744;7.114;2024-01-15T09:14:12;99742.03;;;4.50;63.69
81387;BME280;70842;50.744;7.114;2024-01-15T09:16:42;99746.47;;;4.12;64.31
81387;BME280;70842;50.744;7.114;2024-01-15T09:19:08;99738.00;;;4.09;64.30
81387;BME280;70842;50.744;7.114;2024-01-15T09:21:35;99746.56;;;4.36;64.10
81387;BME280;70842;50.744;7.114;2024-01-15T09:24:02;99739.19;;;4.53;63.29
81387;BME280;70842;50.744;7.114;2024-01-15T09:26:28;99733.38;;;4.61;63.04
81387;BME280;70842;50.744;7.114;2024-01-15T09:28:55;99728.47;;;3.95;65.00
81387;BME280;70842;50.744;7.114;2024-01-15T09:31:21;99743.88;;;4.00;64.61
81387;BME280;70842;50.744;7.114;2024-01-15T09:33:49;99745.00;;;4.21;65.02
81387;BME280;70842;50.744;7.114;2024-01-15T09:36:18;99734.72;;;4.05;65.43
81387;BME280;70842;50.744;7.114;2024-01-15T09:38:45;99730.56;;;3.90;66.54
81387;BME280;70842;50.744;7.114;2024-01-15T09:41:11;99738.09;;;4.20;65.42
81387;BME280;70842;50.744;7.114;2024-01-15T09:43:38;99737.91;;;3.97;66.23
81387;BME280;70842;50.744;7.114;2024-01-15T09:46:04;99756.19;;;3.47;68.14
81387;BME280;70842;50.744;7.114;2024-01-15T09:48:31;99744.50;;;3.90;67.83
81387;BME280;70842;50.744;7.114;2024-01-15T09:51:01;99756.53;;;3.55;69.09
81387;BME280;70842;50.744;7.114;2024-01-15T09:53:28;99745.13;;;3.69;69.67
81387;BME280;70842;50.744;7.114;2024-01-15T09:55:54;99753.50;;;3.61;70.50
81387;BME280;70842;50.744;7.114;2024-01-15T09:58:21;99750.97;;;3.47;71.31
81387;BME280;70842;50.744;7.114;2024-01-15T10:00:48;99753.38;;;3.50;71.75
81387;BME280;70842;50.744;7.114;2024-01-15T10:03:16;99753.91;;;3.55;72.00
81387;BME280;70842;50.744;7.114;2024-01-15T10:05:43;99761.31;;;2.83;74.18
81387;BME280;70842;50.744;7.114;2024-01-15T10:08:10;99752.06;;;3.18;74.15
81387;BME280;70842;50.744;7.114;2024-01-15T10:10:37;99757.59;;;3.65;72.61
81387;BME280;70842;50.744;7.114;2024-01-15T10:13:04;99765.22;;;3.43;73.07
81387;BME280;70842;50.744;7.114;2024-01-15T10:15:34;99769.56;;;3.30;73.72
81387;BME280;70842;50.744;7.114;2024-01-15T10:18:03;99772.28;;;3.02;75.69
81387;BME280;70842;50.744;7.114;2024-01-15T10:20:32;99777.72;;;2.99;75.78
81387;BME280;70842;50.744;7.114;2024-01-15T10:22:58;99772.13;;;2.64;76.53
81387;BME280;70842;50.744;7.114;2024-01-15T10:25:25;99764.09;;;2.94;75.50
81387;BME280;70842;50.744;7.114;2024-01-15T10:28:00;99781.06;;;3.28;74.57
81387;BME280;70842;50.744;7.114;2024-01-15T10:30:26;99776.38;;;3.06;75.84
81387;BME280;70842;50.744;7.114;2024-01-15T10:33:01;99775.16;;;3.51;73.68
81387;BME280;70842;50.744;7.114;2024-01-15T10:35:32;99774.50;;;3.35;74.00
81387;BME280;70842;50.744;7.114;2024-01-15T10:38:00;99769.53;;;3.17;74.29
81387;BME280;70842;50.744;7.114;2024-01-15T10:40:27;99770.53;;;3.54;73.63
81387;BME280;70842;50.744;7.114;2024-01-15T10:42:54;99763.88;;;2.97;75.22
81387;BME280;70842;50.744;7.114;2024-01-15T10:45:21;99777.81;;;2.71;77.17
81387;BME280;70842;50.744;7.114;2024-01-15T10:47:48;99777.84;;;3.10;75.84
81387;BME280;70842;50.744;7.114;2024-01-15T10:50:15;99780.19;;;2.88;76.69
81387;BME280;70842;50.744;7.114;2024-01-15T10:52:42;99762.47;;;2.79;77.31
81387;BME280;70842;50.744;7.114;2024-01-15T10:55:12;99772.97;;;2.91;76.52
81387;BME280;70842;50.744;7.114;2024-01-15T10:57:45;99777.56;;;3.14;75.54
81387;BME280;70842;50.744;7.114;2024-01-15T11:00:14;99785.44;;;2.88;75.16
81387;BME280;70842;50.744;7.114;2024-01-15T11:02:42;99776.22;;;2.95;76.33
81387;BME280;70842;50.744;7.114;2024-01-15T11:05:09;99783.28;;;3.34;74.90
81387;BME280;70842;50.744;7.114;2024-01-15T11:07:35;99772.75;;;2.82;76.55
81387;BME280;70842;50.744;7.114;2024-01-15T11:10:05;99774.41;;;2.83;76.93
81387;BME280;70842;50.744;7.114;2024-01-15T11:12:33;99780.94;;;2.76;76.80
81387;BME280;70842;50.744;7.114;2024-01-15T11:15:03;99770.25;;;2.66;77.14
81387;BME280;70842;50.744;7.114;2024-01-15T11:17:58;99774.84;;;2.34;78.12
81387;BME280;70842;50.744;7.114;2024-01-15T11:20:26;99769.03;;;2.58;77.75
81387;BME280;70842;50.744;7.114;2024-01-15T11:22:53;99783.53;;;2.90;76.87
81387;BME280;70842;50.744;7.114;2024-01-15T11:25:19;99784.09;;;3.22;76.04
81387;BME280;70842;50.744;7.114;2024-01-15T11:27:48;99773.59;;;2.68;77.16
81387;BME280;70842;50.744;7.114;2024-01-15T11:30:19;99775.75;;;2.62;77.97
81387;BME280;70842;50.744;7.114;2024-01-15T11:32:49;99785.75;;;2.69;77.93
81387;BME280;70842;50.744;7.114;2024-01-15T11:35:16;99777.09;;;3.22;76.25
81387;BME280;70842;50.744;7.114;2024-01-15T11:40:35;99782.16;;;3.11;76.68
81387;BME280;70842;50.744;7.114;2024-01-15T11:43:05;99793.56;;;3.37;75.20
81387;BME280;70842;50.744;7.114;2024-01-15T11:45:32;99789.56;;;3.31;74.72
81387;BME280;70842;50.744;7.114;2024-01-15T11:48:09;99788.69;;;3.18;76.20
81387;BME280;70842;50.744;7.114;2024-01-15T11:50:39;99791.66;;;3.26;75.22
81387;BME280;70842;50.744;7.114;2024-01-15T11:53:13;99787.88;;;3.30;75.42
81387;BME280;70842;50.744;7.114;2024-01-15T11:55:44;99792.13;;;3.18;75.92
81387;BME280;70842;50.744;7.114;2024-01-15T11:58:11;99782.00;;;3.66;74.32
81387;BME280;70842;50.744;7.114;2024-01-15T12:00:45;99795.97;;;3.40;75.11
81387;BME280;70842;50.744;7.114;2024-01-15T12:03:13;99799.41;;;3.28;75.42
81387;BME280;70842;50.744;7.114;2024-01-15T12:05:40;99799.22;;;3.31;75.92
81387;BME280;70842;50.744;7.114;2024-01-15T12:08:08;99794.41;;;3.37;75.42
81387;BME280;70842;50.744;7.114;2024-01-15T12:10:38;99793.09;;;3.69;73.50
81387;BME280;70842;50.744;7.114;2024-01-15T12:13:12;99788.59;;;3.59;74.72
81387;BME280;70842;50.744;7.114;2024-01-15T12:15:41;99773.31;;;4.16;71.86
81387;BME280;70842;50.744;7.114;2024-01-15T12:18:10;99784.75;;;4.40;71.17
81387;BME280;70842;50.744;7.114;2024-01-15T12:20:37;99784.66;;;3.91;72.39
81387;BME280;70842;50.744;7.114;2024-01-15T12:23:04;99792.75;;;3.49;74.09
81387;BME280;70842;50.744;7.114;2024-01-15T12:25:34;99784.47;;;3.42;73.43
81387;BME280;70842;50.744;7.114;2024-01-15T12:28:01;99786.91;;;3.58;73.77
81387;BME280;70842;50.744;7.114;2024-01-15T12:30:28;99781.19;;;4.03;71.70
81387;BME280;70842;50.744;7.114;2024-01-15T12:32:55;99769.88;;;3.90;72.38
81387;BME280;70842;50.744;7.114;2024-01-15T12:35:24;99776.63;;;3.55;72.43
81387;BME280;70842;50.744;7.114;2024-01-15T12:37:50;99774.59;;;3.97;71.77
81387;BME280;70842;50.744;7.114;2024-01-15T12:40:20;99781.09;;;3.79;71.10
81387;BME280;70842;50.744;7.114;2024-01-15T12:42:47;99770.81;;;3.76;70.33
81387;BME280;70842;50.744;7.114;2024-01-15T12:45:14;99779.09;;;4.82;68.50
81387;BME280;70842;50.744;7.114;2024-01-15T12:47:41;99765.28;;;8.61;57.69
81387;BME280;70842;50.744;7.114;2024-01-15T12:50:10;99768.31;;;9.06;55.09
81387;BME280;70842;50.744;7.114;2024-01-15T12:52:45;99788.72;;;4.58;64.61
81387;BME280;70842;50.744;7.114;2024-01-15T12:55:12;99788.81;;;4.44;66.71
81387;BME280;70842;50.744;7.114;2024-01-15T12:57:38;99788.72;;;4.58;66.54
81387;BME280;70842;50.744;7.114;2024-01-15T13:00:05;99788.09;;;4.42;67.52
81387;BME280;70842;50.744;7.114;2024-01-15T13:02:39;99791.88;;;4.38;68.28
81387;BME280;70842;50.744;7.114;2024-01-15T13:05:08;99801.22;;;4.17;67.95
81387;BME280;70842;50.744;7.114;2024-01-15T13:07:35;99795.66;;;4.34;68.50
81387;BME280;70842;50.744;7.114;2024-01-15T13:10:02;99804.69;;;3.92;69.26
81387;BME280;70842;50.744;7.114;2024-01-15T13:12:28;99801.75;;;4.22;68.53